Costa Marques, Brazil
Current Conditions -  °F | °C
As of 7:00 PM on Friday 24 Oct 2014 (Local Time) from SBGM Reporting Station
Light Rain Light Rain  
Wind Chill: 23°   Ceiling: 10000
Heat Index: 23°   Visibility: 6mi
Dew Point: 22°   Wind: 6mph
Humidity: 94%   Direction: 300°WNW
Pressure: 29.77"   Gusts: NA
Location:  12.45°S, 64.23°W
Report Text: SBGM 242300Z 30005KT 9999 -RA SCT015 OVC100 23/22 Q1008
Loading
Personal Weather Stations






























Interactive Weather Map
Tropical Storm Tracking
New forecast layout! Learn more

10-Day Weather Forecast

Advertisements
Track Severe Weather on mobile